createdAt,value
2022-10-23T00:01:22.844Z,9.13
2022-10-23T00:03:55.886Z,4.87
2022-10-23T00:06:23.295Z,6.63
2022-10-23T00:08:50.086Z,9.37
2022-10-23T00:11:20.201Z,8.40
2022-10-23T00:13:47.410Z,15.50
2022-10-23T00:16:14.551Z,10.10
2022-10-23T00:18:41.653Z,11.77
2022-10-23T00:21:10.871Z,12.10
2022-10-23T00:23:37.758Z,7.10
2022-10-23T00:26:05.145Z,7.53
2022-10-23T00:28:31.988Z,9.10
2022-10-23T00:31:02.220Z,6.60
2022-10-23T00:33:29.212Z,5.47
2022-10-23T00:35:55.947Z,3.87
2022-10-23T00:38:23.048Z,6.83
2022-10-23T00:43:27.682Z,9.27
2022-10-23T00:45:54.878Z,5.83
2022-10-23T00:48:22.166Z,5.00
2022-10-23T00:50:50.373Z,5.47
2022-10-23T00:53:18.676Z,4.63
2022-10-23T00:55:48.871Z,8.63
2022-10-23T00:58:17.789Z,6.27
2022-10-23T01:00:52.010Z,3.80
2022-10-23T01:03:22.590Z,6.80
2022-10-23T01:06:11.059Z,5.03
2022-10-23T01:08:46.586Z,7.83
2022-10-23T01:11:26.644Z,2.13
2022-10-23T01:14:06.382Z,2.23
2022-10-23T01:16:56.268Z,10.00
2022-10-23T01:19:42.767Z,3.70
2022-10-23T01:22:21.884Z,8.07
2022-10-23T01:24:59.188Z,9.23
2022-10-23T01:27:32.797Z,3.07
2022-10-23T01:30:08.022Z,7.10
2022-10-23T01:32:48.150Z,8.17
2022-10-23T01:35:32.837Z,4.07
2022-10-23T01:38:27.223Z,3.20
2022-10-23T01:41:16.105Z,5.47
2022-10-23T01:43:54.502Z,2.07
2022-10-23T01:46:23.644Z,8.10
2022-10-23T01:48:53.736Z,6.60
2022-10-23T01:51:23.520Z,6.20
2022-10-23T01:53:54.663Z,6.50
2022-10-23T01:56:30.925Z,4.83
2022-10-23T01:59:02.478Z,4.83
2022-10-23T02:01:35.309Z,5.07
2022-10-23T02:04:05.792Z,11.33
2022-10-23T02:06:32.940Z,6.77
2022-10-23T02:08:59.783Z,10.00
2022-10-23T02:11:27.148Z,8.40
2022-10-23T02:14:10.264Z,2.67
2022-10-23T02:16:53.458Z,7.97
2022-10-23T02:19:42.443Z,5.43
2022-10-23T02:22:27.838Z,5.00
2022-10-23T02:25:11.460Z,6.97
2022-10-23T02:27:47.729Z,11.57
2022-10-23T02:30:18.711Z,5.53
2022-10-23T02:32:53.897Z,5.40
2022-10-23T02:35:23.711Z,10.70
2022-10-23T02:38:00.090Z,4.73
2022-10-23T02:40:44.238Z,2.60
2022-10-23T02:43:27.086Z,8.40
2022-10-23T02:46:25.026Z,4.47
2022-10-23T02:49:21.456Z,4.10
2022-10-23T02:52:03.954Z,2.83
2022-10-23T02:54:53.221Z,7.57
2022-10-23T02:57:48.454Z,5.43
2022-10-23T03:00:17.953Z,10.10
2022-10-23T03:02:50.580Z,11.80
2022-10-23T03:05:21.933Z,6.80
2022-10-23T03:07:49.311Z,3.17
2022-10-23T03:10:18.101Z,7.63
2022-10-23T03:12:46.989Z,9.47
2022-10-23T03:15:13.748Z,5.50
2022-10-23T03:17:40.473Z,10.43
2022-10-23T03:20:07.874Z,10.03
2022-10-23T03:22:35.893Z,6.03
2022-10-23T03:25:02.644Z,5.57
2022-10-23T03:27:31.977Z,3.43
2022-10-23T03:30:02.154Z,3.87
2022-10-23T03:32:30.223Z,11.20
2022-10-23T03:34:56.964Z,9.83
2022-10-23T03:37:24.120Z,4.03
2022-10-23T03:39:51.211Z,7.73
2022-10-23T03:42:18.183Z,7.17
2022-10-23T03:44:45.049Z,4.10
2022-10-23T03:47:12.102Z,5.40
2022-10-23T03:49:39.761Z,4.93
2022-10-23T03:52:08.003Z,3.07
2022-10-23T03:54:35.442Z,7.53
2022-10-23T03:57:02.403Z,8.13
2022-10-23T03:59:29.628Z,11.60
2022-10-23T04:01:58.787Z,6.20
2022-10-23T04:04:25.636Z,5.67
2022-10-23T04:06:53.054Z,9.37
2022-10-23T04:09:20.715Z,3.80
2022-10-23T04:11:47.416Z,4.57
2022-10-23T04:14:14.527Z,7.63
2022-10-23T04:16:41.426Z,9.53
2022-10-23T04:19:08.322Z,5.73
2022-10-23T04:21:35.257Z,7.30
2022-10-23T04:24:01.996Z,8.37
2022-10-23T04:26:28.783Z,5.73
2022-10-23T04:28:55.525Z,4.53
2022-10-23T04:31:22.228Z,2.17
2022-10-23T04:33:49.469Z,4.67
2022-10-23T04:36:29.338Z,3.07
2022-10-23T04:38:58.961Z,5.10
2022-10-23T04:41:27.196Z,13.43
2022-10-23T04:43:53.859Z,4.37
2022-10-23T04:46:20.649Z,5.00
2022-10-23T04:48:48.667Z,4.67
2022-10-23T04:51:24.395Z,3.00
2022-10-23T04:54:13.560Z,6.77
2022-10-23T04:56:58.941Z,8.37
2022-10-23T04:59:31.686Z,5.97
2022-10-23T05:02:00.570Z,7.40
2022-10-23T05:04:28.426Z,3.87
2022-10-23T05:10:25.141Z,5.43
2022-10-23T05:13:05.800Z,4.83
2022-10-23T05:15:32.663Z,4.90
2022-10-23T05:18:08.496Z,11.07
2022-10-23T05:20:37.693Z,11.53
2022-10-23T05:23:08.678Z,11.03
2022-10-23T05:25:35.873Z,3.80
2022-10-23T05:28:15.932Z,9.40
2022-10-23T05:30:43.083Z,8.23
2022-10-23T05:33:11.376Z,6.57
2022-10-23T05:35:43.959Z,5.40
2022-10-23T05:38:13.030Z,8.27
2022-10-23T05:43:17.637Z,7.17
2022-10-23T05:45:50.189Z,9.37
2022-10-23T05:48:40.859Z,8.63
2022-10-23T05:51:45.997Z,3.70
2022-10-23T05:54:28.465Z,16.60
2022-10-23T05:57:14.017Z,5.93
2022-10-23T05:59:47.957Z,5.73
2022-10-23T06:02:43.987Z,5.17
2022-10-23T06:05:28.052Z,6.27
2022-10-23T06:08:14.560Z,2.57
2022-10-23T06:10:41.450Z,3.70
2022-10-23T06:13:10.590Z,4.57
2022-10-23T06:15:38.276Z,5.80
2022-10-23T06:18:18.937Z,8.57
2022-10-23T06:20:55.021Z,7.87
2022-10-23T06:23:26.586Z,6.83
2022-10-23T06:25:59.360Z,5.30
2022-10-23T06:28:34.657Z,2.23
2022-10-23T06:31:05.603Z,4.33
2022-10-23T06:33:32.458Z,7.03
2022-10-23T06:35:59.396Z,2.40
2022-10-23T06:38:26.220Z,9.23
2022-10-23T06:40:56.706Z,9.30
2022-10-23T06:43:30.507Z,2.37
2022-10-23T06:46:16.239Z,7.67
2022-10-23T06:49:18.250Z,8.17
2022-10-23T06:51:47.919Z,4.57
2022-10-23T06:54:16.308Z,5.20
2022-10-23T06:57:01.771Z,2.77
2022-10-23T06:59:40.029Z,5.13
2022-10-23T07:02:09.482Z,4.70
2022-10-23T07:04:36.324Z,6.93
2022-10-23T07:07:08.798Z,7.53
2022-10-23T07:09:44.190Z,6.27
2022-10-23T07:12:22.356Z,5.00
2022-10-23T07:14:55.588Z,2.90
2022-10-23T07:17:22.481Z,7.90
2022-10-23T07:19:49.317Z,10.40
2022-10-23T07:22:16.308Z,4.93
2022-10-23T07:25:05.753Z,6.03
2022-10-23T07:27:38.366Z,5.13
2022-10-23T07:30:08.037Z,6.03
2022-10-23T07:32:44.494Z,6.43
2022-10-23T07:35:40.880Z,5.87
2022-10-23T07:38:13.709Z,6.97
2022-10-23T07:40:45.104Z,9.17
2022-10-23T07:43:14.908Z,9.43
2022-10-23T07:45:42.436Z,12.97
2022-10-23T07:48:17.319Z,8.00
2022-10-23T07:51:08.103Z,13.07
2022-10-23T07:53:38.897Z,11.37
2022-10-23T07:56:28.007Z,6.00
2022-10-23T07:59:24.064Z,9.10
2022-10-23T08:01:56.420Z,8.63
2022-10-23T08:04:28.679Z,5.47
2022-10-23T08:07:10.214Z,8.30
2022-10-23T08:09:41.520Z,7.57
2022-10-23T08:12:09.839Z,10.13
2022-10-23T08:14:36.692Z,7.43
2022-10-23T08:17:05.079Z,16.53
2022-10-23T08:19:50.848Z,6.27
2022-10-23T08:22:18.901Z,8.60
2022-10-23T08:24:45.962Z,3.87
2022-10-23T08:27:12.709Z,5.80
2022-10-23T08:29:44.263Z,19.93
2022-10-23T08:32:11.109Z,3.90
2022-10-23T08:34:48.186Z,7.80
2022-10-23T08:37:14.961Z,3.83
2022-10-23T08:39:41.861Z,4.90
2022-10-23T08:42:21.935Z,8.30
2022-10-23T08:45:28.896Z,6.93
2022-10-23T08:48:30.368Z,4.37
2022-10-23T08:51:41.649Z,2.20
2022-10-23T08:54:15.650Z,4.33
2022-10-23T08:56:47.166Z,6.20
2022-10-23T08:59:32.847Z,3.17
2022-10-23T09:02:14.675Z,4.30
2022-10-23T09:04:44.890Z,3.33
2022-10-23T09:07:38.593Z,5.17
2022-10-23T09:10:25.883Z,8.77
2022-10-23T09:12:52.624Z,3.83
2022-10-23T09:15:22.130Z,6.57
2022-10-23T09:17:55.062Z,7.73
2022-10-23T09:20:27.610Z,7.50
2022-10-23T09:23:15.368Z,7.13
2022-10-23T09:25:42.949Z,7.10
2022-10-23T09:28:20.956Z,2.20
2022-10-23T09:30:48.868Z,6.53
2022-10-23T09:33:25.423Z,4.17
2022-10-23T09:35:59.429Z,2.10
2022-10-23T09:38:32.625Z,3.13
2022-10-23T09:41:06.011Z,8.10
2022-10-23T09:43:32.772Z,7.70
2022-10-23T09:46:06.074Z,2.47
2022-10-23T09:48:34.735Z,7.30
2022-10-23T09:51:04.342Z,4.13
2022-10-23T09:54:00.165Z,7.67
2022-10-23T09:56:33.260Z,2.70
2022-10-23T09:59:16.424Z,3.90
2022-10-23T10:01:50.414Z,5.67
2022-10-23T10:04:52.407Z,5.97
2022-10-23T10:07:22.730Z,6.43
2022-10-23T10:09:50.099Z,3.40
2022-10-23T10:12:37.498Z,5.13
2022-10-23T10:15:19.777Z,4.37
2022-10-23T10:18:16.343Z,3.57
2022-10-23T10:20:43.038Z,4.70
2022-10-23T10:23:29.895Z,4.73
2022-10-23T10:26:02.746Z,2.60
2022-10-23T10:29:03.386Z,2.30
2022-10-23T10:32:07.856Z,4.13
2022-10-23T10:34:44.805Z,6.97
2022-10-23T10:37:30.109Z,3.33
2022-10-23T10:40:13.482Z,8.53
2022-10-23T10:43:08.117Z,2.70
2022-10-23T10:45:46.795Z,1.53
2022-10-23T10:48:43.314Z,4.20
2022-10-23T10:52:03.689Z,2.13
2022-10-23T10:54:55.244Z,4.70
2022-10-23T10:57:28.872Z,1.77
2022-10-23T10:59:59.210Z,6.37
2022-10-23T11:02:42.740Z,1.30
2022-10-23T11:05:24.382Z,4.47
2022-10-23T11:08:09.914Z,2.70
2022-10-23T11:10:40.809Z,2.43
2022-10-23T11:13:27.657Z,2.87
2022-10-23T11:16:01.926Z,3.80
2022-10-23T11:18:30.937Z,5.57
2022-10-23T11:21:23.007Z,3.80
2022-10-23T11:24:15.819Z,1.20
2022-10-23T11:26:55.054Z,2.30
2022-10-23T11:29:40.763Z,2.50
2022-10-23T11:32:28.598Z,4.20
2022-10-23T11:35:04.508Z,3.70
2022-10-23T11:37:31.556Z,2.13
2022-10-23T11:40:07.563Z,4.20
2022-10-23T11:42:34.229Z,3.13
2022-10-23T11:45:01.019Z,6.27
2022-10-23T11:47:38.016Z,1.67
2022-10-23T11:50:09.107Z,2.10
2022-10-23T11:52:50.387Z,1.60
2022-10-23T11:55:56.454Z,2.10
2022-10-23T11:58:31.477Z,2.83
2022-10-23T12:01:18.080Z,1.17
2022-10-23T12:03:53.742Z,2.67
2022-10-23T12:06:30.741Z,4.27
2022-10-23T12:09:06.274Z,1.73
2022-10-23T12:11:48.283Z,1.90
2022-10-23T12:14:37.329Z,3.70
2022-10-23T12:17:24.015Z,4.63
2022-10-23T12:20:02.285Z,2.97
2022-10-23T12:22:48.906Z,8.20
2022-10-23T12:25:43.440Z,4.20
2022-10-23T12:28:50.477Z,1.83
2022-10-23T12:31:45.569Z,4.07
2022-10-23T12:34:50.052Z,4.50
2022-10-23T12:37:32.226Z,3.30
2022-10-23T12:39:59.516Z,2.27
2022-10-23T12:42:28.965Z,5.97
2022-10-23T12:45:06.094Z,6.37
2022-10-23T12:47:32.879Z,3.20
2022-10-23T12:49:59.620Z,3.77
2022-10-23T12:52:26.483Z,2.37
2022-10-23T12:54:53.230Z,5.73
2022-10-23T12:57:25.885Z,7.70
2022-10-23T12:59:58.054Z,5.43
2022-10-23T13:02:27.996Z,4.53
2022-10-23T13:04:56.954Z,8.13
2022-10-23T13:07:26.626Z,10.80
2022-10-23T13:09:58.853Z,7.57
2022-10-23T13:12:30.796Z,4.33
2022-10-23T13:15:00.206Z,3.93
2022-10-23T13:17:45.115Z,11.83
2022-10-23T13:20:18.306Z,5.13
2022-10-23T13:23:00.888Z,6.03
2022-10-23T13:25:33.333Z,9.40
2022-10-23T13:28:26.038Z,13.37
2022-10-23T13:31:01.958Z,5.90
2022-10-23T13:33:35.301Z,8.83
2022-10-23T13:36:13.312Z,7.17
2022-10-23T13:38:42.594Z,6.70
2022-10-23T13:41:18.473Z,6.23
2022-10-23T13:43:47.643Z,6.57
2022-10-23T13:46:18.958Z,4.27
2022-10-23T13:48:46.395Z,8.77
2022-10-23T13:51:16.560Z,6.80
2022-10-23T13:53:43.304Z,7.40
2022-10-23T13:56:12.517Z,9.33
2022-10-23T13:58:39.694Z,13.90
2022-10-23T14:01:12.253Z,6.30
2022-10-23T14:03:38.981Z,10.33
2022-10-23T14:06:06.017Z,8.73
2022-10-23T14:08:32.716Z,6.93
2022-10-23T14:10:59.423Z,5.10
2022-10-23T14:13:26.042Z,10.17
2022-10-23T14:15:54.331Z,8.90
2022-10-23T14:18:21.446Z,11.37
2022-10-23T14:20:48.128Z,8.23
2022-10-23T14:23:14.824Z,7.17
2022-10-23T14:25:41.514Z,4.37
2022-10-23T14:28:08.303Z,9.10
2022-10-23T14:30:37.733Z,5.67
2022-10-23T14:33:04.975Z,6.80
2022-10-23T14:35:31.696Z,10.67
2022-10-23T14:37:58.549Z,5.80
2022-10-23T14:40:25.391Z,9.37
2022-10-23T14:42:52.088Z,8.23
2022-10-23T14:45:18.776Z,12.50
2022-10-23T14:47:46.257Z,10.90
2022-10-23T14:50:15.154Z,6.53
2022-10-23T14:52:41.812Z,7.90
2022-10-23T14:55:08.991Z,5.53
2022-10-23T14:57:35.698Z,10.20
2022-10-23T15:00:02.369Z,9.83
2022-10-23T15:02:29.006Z,6.10
2022-10-23T15:04:55.759Z,14.23
2022-10-23T15:07:22.436Z,7.23
2022-10-23T15:09:51.733Z,9.73
2022-10-23T15:12:18.523Z,5.63
2022-10-23T15:14:45.201Z,6.03
2022-10-23T15:17:15.671Z,6.47
2022-10-23T15:19:42.634Z,7.70
2022-10-23T15:22:09.286Z,6.87
2022-10-23T15:24:36.048Z,6.27
2022-10-23T15:27:02.833Z,6.13
2022-10-23T15:29:29.593Z,5.57
2022-10-23T15:31:58.606Z,6.10
2022-10-23T15:34:28.190Z,9.03
2022-10-23T15:36:56.465Z,6.73
2022-10-23T15:39:25.569Z,7.70
2022-10-23T15:41:54.704Z,3.53
2022-10-23T15:44:24.225Z,8.93
2022-10-23T15:46:51.669Z,8.13
2022-10-23T15:49:19.612Z,9.30
2022-10-23T15:51:46.783Z,8.87
2022-10-23T15:54:16.977Z,8.77
2022-10-23T15:56:48.221Z,9.13
2022-10-23T15:59:15.473Z,14.07
2022-10-23T16:01:42.346Z,12.07
2022-10-23T16:04:09.259Z,10.73
2022-10-23T16:06:36.256Z,10.63
2022-10-23T16:09:03.764Z,11.90
2022-10-23T16:11:34.008Z,16.23
2022-10-23T16:14:01.579Z,13.87
2022-10-23T16:16:29.332Z,11.23
2022-10-23T16:18:58.185Z,19.60
2022-10-23T16:21:28.208Z,11.33
2022-10-23T16:23:56.105Z,10.70
2022-10-23T16:26:23.515Z,13.57
2022-10-23T16:28:54.624Z,16.43
2022-10-23T16:31:25.101Z,13.63
2022-10-23T16:33:52.942Z,12.13
2022-10-23T16:36:20.558Z,14.13
2022-10-23T16:39:22.693Z,7.57
2022-10-23T16:42:08.352Z,10.40
2022-10-23T16:44:48.560Z,10.20
2022-10-23T16:47:15.465Z,12.53
2022-10-23T16:49:42.169Z,8.23
2022-10-23T16:52:09.250Z,16.53
2022-10-23T16:54:36.058Z,13.53
2022-10-23T16:57:02.746Z,13.60
2022-10-23T16:59:29.494Z,10.87
2022-10-23T17:01:56.503Z,11.60
2022-10-23T17:04:23.268Z,12.77
2022-10-23T17:06:49.998Z,14.50
2022-10-23T17:09:19.194Z,11.63
2022-10-23T17:11:46.038Z,12.73
2022-10-23T17:14:16.472Z,12.53
2022-10-23T17:16:46.275Z,8.97
2022-10-23T17:19:33.122Z,13.97
2022-10-23T17:22:01.481Z,14.00
2022-10-23T17:24:28.353Z,9.07
2022-10-23T17:26:56.003Z,15.77
2022-10-23T17:29:22.774Z,15.43
2022-10-23T17:31:50.681Z,19.17
2022-10-23T17:34:22.469Z,18.93
2022-10-23T17:36:52.648Z,12.70
2022-10-23T17:39:23.187Z,11.33
2022-10-23T17:41:50.125Z,12.90
2022-10-23T17:44:17.009Z,10.20
2022-10-23T17:46:43.907Z,11.77
2022-10-23T17:49:11.406Z,7.57
2022-10-23T17:51:38.670Z,9.27
2022-10-23T17:54:07.889Z,9.20
2022-10-23T17:56:36.422Z,10.93
2022-10-23T17:59:06.720Z,8.60
2022-10-23T18:01:33.582Z,7.37
2022-10-23T18:04:03.533Z,10.80
2022-10-23T18:06:42.016Z,12.63
2022-10-23T18:09:08.857Z,10.63
2022-10-23T18:11:37.955Z,8.70
2022-10-23T18:14:06.576Z,11.27
2022-10-23T18:16:35.907Z,12.67
2022-10-23T18:19:04.102Z,16.50
2022-10-23T18:21:30.763Z,9.63
2022-10-23T18:24:01.825Z,13.80
2022-10-23T18:26:31.278Z,15.83
2022-10-23T18:29:00.570Z,12.60
2022-10-23T18:31:30.184Z,13.17
2022-10-23T18:34:04.046Z,14.93
2022-10-23T18:36:34.270Z,11.13
2022-10-23T18:39:01.781Z,11.50
2022-10-23T18:41:33.582Z,11.33
2022-10-23T18:44:00.275Z,14.37
2022-10-23T18:46:26.939Z,14.87
2022-10-23T18:48:53.623Z,12.33
2022-10-23T18:51:29.488Z,14.90
2022-10-23T18:53:56.633Z,17.90
2022-10-23T18:56:26.094Z,13.80
2022-10-23T18:58:58.116Z,39.23
2022-10-23T19:01:27.065Z,14.60
2022-10-23T19:06:27.556Z,17.50
2022-10-23T19:08:54.229Z,11.53
2022-10-23T19:11:22.810Z,15.50
2022-10-23T19:13:49.601Z,15.20
2022-10-23T19:16:23.675Z,18.33
2022-10-23T19:19:10.845Z,27.20
2022-10-23T19:21:39.950Z,25.67
2022-10-23T19:24:12.388Z,21.17
2022-10-23T19:26:40.326Z,16.67
2022-10-23T19:29:09.684Z,15.70
2022-10-23T19:31:36.424Z,15.97
2022-10-23T19:34:03.148Z,19.67
2022-10-23T19:36:29.886Z,13.83
2022-10-23T19:38:56.609Z,17.00
2022-10-23T19:41:23.354Z,18.30
2022-10-23T19:43:49.994Z,19.37
2022-10-23T19:46:16.867Z,14.73
2022-10-23T19:48:44.863Z,25.17
2022-10-23T19:51:13.211Z,22.23
2022-10-23T19:53:41.238Z,19.20
2022-10-23T19:56:10.218Z,17.40
2022-10-23T19:58:36.894Z,15.20
2022-10-23T20:01:08.612Z,17.93
2022-10-23T20:03:35.405Z,18.40
2022-10-23T20:06:02.034Z,16.37
2022-10-23T20:08:32.640Z,15.70
2022-10-23T20:11:01.760Z,18.03
2022-10-23T20:13:28.472Z,19.07
2022-10-23T20:15:55.289Z,14.63
2022-10-23T20:18:21.964Z,14.63
2022-10-23T20:20:48.869Z,20.90
2022-10-23T20:23:15.535Z,16.43
2022-10-23T20:25:42.207Z,11.30
2022-10-23T20:28:11.466Z,12.37
2022-10-23T20:30:42.402Z,15.60
2022-10-23T20:33:09.252Z,13.97
2022-10-23T20:35:40.896Z,14.37
2022-10-23T20:38:08.700Z,11.27
2022-10-23T20:40:35.764Z,11.33
2022-10-23T20:43:02.720Z,10.53
2022-10-23T20:45:29.402Z,17.13
2022-10-23T20:47:56.074Z,12.70
2022-10-23T20:50:23.792Z,15.10
2022-10-23T20:52:50.979Z,12.27
2022-10-23T20:55:18.552Z,23.20
2022-10-23T20:57:45.791Z,30.47
2022-10-23T21:00:12.929Z,24.80
2022-10-23T21:02:39.612Z,16.83
2022-10-23T21:05:06.765Z,11.50
2022-10-23T21:07:33.404Z,13.33
2022-10-23T21:10:01.008Z,16.47
2022-10-23T21:12:27.638Z,16.03
2022-10-23T21:14:54.274Z,17.00
2022-10-23T21:17:20.960Z,14.80
2022-10-23T21:19:47.653Z,17.77
2022-10-23T21:22:14.572Z,10.93
2022-10-23T21:24:41.238Z,20.00
2022-10-23T21:27:07.892Z,19.73
2022-10-23T21:29:34.572Z,29.20
2022-10-23T21:32:01.571Z,15.03
2022-10-23T21:34:28.796Z,26.53
2022-10-23T21:39:43.826Z,25.00
2022-10-23T21:42:14.446Z,23.67
2022-10-23T21:44:41.353Z,22.80
2022-10-23T21:47:07.981Z,11.33
2022-10-23T21:49:34.778Z,19.30
2022-10-23T21:52:01.635Z,15.23
2022-10-23T21:54:28.316Z,9.47
2022-10-23T21:56:55.016Z,14.10
2022-10-23T21:59:26.696Z,11.47
2022-10-23T22:01:56.093Z,16.90
2022-10-23T22:04:23.025Z,14.87
2022-10-23T22:06:50.008Z,14.37
2022-10-23T22:09:19.615Z,8.83
2022-10-23T22:11:48.210Z,9.43
2022-10-23T22:14:14.848Z,8.00
2022-10-23T22:16:42.014Z,11.77
2022-10-23T22:19:11.542Z,14.60
2022-10-23T22:21:38.669Z,12.07
2022-10-23T22:24:05.726Z,11.80
2022-10-23T22:26:47.185Z,10.57
2022-10-23T22:29:17.424Z,9.63
2022-10-23T22:31:48.776Z,13.03
2022-10-23T22:34:48.389Z,9.90
2022-10-23T22:37:13.151Z,14.47
2022-10-23T22:39:40.019Z,12.00
2022-10-23T22:42:06.834Z,11.30
2022-10-23T22:44:33.497Z,16.30
2022-10-23T22:47:00.187Z,11.63
2022-10-23T22:49:26.859Z,16.17
2022-10-23T22:51:53.509Z,13.47
2022-10-23T22:54:20.176Z,16.97
2022-10-23T22:56:46.984Z,16.10
2022-10-23T22:59:14.869Z,8.80
2022-10-23T23:01:44.596Z,14.00
2022-10-23T23:04:25.876Z,14.23
2022-10-23T23:06:59.146Z,15.90
2022-10-23T23:09:25.816Z,14.33
2022-10-23T23:11:52.863Z,17.17
2022-10-23T23:14:23.401Z,9.50
2022-10-23T23:16:52.429Z,8.63
2022-10-23T23:19:19.572Z,10.73
2022-10-23T23:21:46.431Z,24.17
2022-10-23T23:24:13.692Z,16.60
2022-10-23T23:26:40.880Z,16.23
2022-10-23T23:29:07.561Z,9.30
2022-10-23T23:31:34.229Z,16.20
2022-10-23T23:34:00.980Z,16.17
2022-10-23T23:36:28.418Z,17.63
2022-10-23T23:38:56.685Z,26.20
2022-10-23T23:41:24.260Z,15.40
2022-10-23T23:43:52.762Z,12.13
2022-10-23T23:46:19.418Z,18.83
2022-10-23T23:48:48.730Z,8.87
2022-10-23T23:51:21.141Z,16.20
2022-10-23T23:53:48.877Z,13.43
2022-10-23T23:56:16.016Z,17.00
2022-10-23T23:58:42.762Z,17.80
